sensor_id;sensor_type;location;lat;lon;timestamp;temperature;humidity
20376;DHT22;10347;51.828;6.466;2022-08-19T00:01:16;22.80;99.90
20376;DHT22;10347;51.828;6.466;2022-08-19T00:03:41;22.80;99.90
20376;DHT22;10347;51.828;6.466;2022-08-19T00:06:07;22.80;99.90
20376;DHT22;10347;51.828;6.466;2022-08-19T00:08:33;22.80;99.90
20376;DHT22;10347;51.828;6.466;2022-08-19T00:10:59;22.70;99.90
20376;DHT22;10347;51.828;6.466;2022-08-19T00:13:24;22.70;99.90
20376;DHT22;10347;51.828;6.466;2022-08-19T00:15:50;22.70;99.90
20376;DHT22;10347;51.828;6.466;2022-08-19T00:18:15;22.70;99.90
20376;DHT22;10347;51.828;6.466;2022-08-19T00:20:41;22.70;99.90
20376;DHT22;10347;51.828;6.466;2022-08-19T00:25:39;22.70;99.90
20376;DHT22;10347;51.828;6.466;2022-08-19T00:28:04;22.60;99.90
20376;DHT22;10347;51.828;6.466;2022-08-19T00:30:30;22.60;99.90
20376;DHT22;10347;51.828;6.466;2022-08-19T00:32:56;22.60;99.90
20376;DHT22;10347;51.828;6.466;2022-08-19T00:35:22;22.50;99.90
20376;DHT22;10347;51.828;6.466;2022-08-19T00:37:48;22.50;99.90
20376;DHT22;10347;51.828;6.466;2022-08-19T00:40:15;22.40;99.90
20376;DHT22;10347;51.828;6.466;2022-08-19T00:42:41;22.40;99.90
20376;DHT22;10347;51.828;6.466;2022-08-19T00:45:14;22.40;99.90
20376;DHT22;10347;51.828;6.466;2022-08-19T00:47:42;22.40;99.90
20376;DHT22;10347;51.828;6.466;2022-08-19T00:50:10;22.30;99.90
20376;DHT22;10347;51.828;6.466;2022-08-19T00:52:39;22.30;99.90
20376;DHT22;10347;51.828;6.466;2022-08-19T00:55:16;22.30;99.90
20376;DHT22;10347;51.828;6.466;2022-08-19T00:57:47;22.30;99.90
20376;DHT22;10347;51.828;6.466;2022-08-19T01:00:16;22.30;99.90
20376;DHT22;10347;51.828;6.466;2022-08-19T01:02:43;22.20;99.90
20376;DHT22;10347;51.828;6.466;2022-08-19T01:05:16;22.20;99.90
20376;DHT22;10347;51.828;6.466;2022-08-19T01:07:43;22.20;99.90
20376;DHT22;10347;51.828;6.466;2022-08-19T01:10:13;22.20;99.90
20376;DHT22;10347;51.828;6.466;2022-08-19T01:12:40;22.10;99.90
20376;DHT22;10347;51.828;6.466;2022-08-19T01:15:08;22.10;99.90
20376;DHT22;10347;51.828;6.466;2022-08-19T01:17:36;22.10;99.90
20376;DHT22;10347;51.828;6.466;2022-08-19T01:20:05;22.10;99.90
20376;DHT22;10347;51.828;6.466;2022-08-19T01:22:40;22.10;99.90
20376;DHT22;10347;51.828;6.466;2022-08-19T01:25:08;22.10;99.90
20376;DHT22;10347;51.828;6.466;2022-08-19T01:27:39;22.00;99.90
20376;DHT22;10347;51.828;6.466;2022-08-19T01:30:05;22.00;99.90
20376;DHT22;10347;51.828;6.466;2022-08-19T01:32:31;22.00;99.90
20376;DHT22;10347;51.828;6.466;2022-08-19T01:34:57;22.00;99.90
20376;DHT22;10347;51.828;6.466;2022-08-19T01:37:23;21.90;99.90
20376;DHT22;10347;51.828;6.466;2022-08-19T01:39:49;21.90;99.90
20376;DHT22;10347;51.828;6.466;2022-08-19T01:42:15;21.90;99.90
20376;DHT22;10347;51.828;6.466;2022-08-19T01:44:41;21.90;99.90
20376;DHT22;10347;51.828;6.466;2022-08-19T01:47:07;21.80;99.90
20376;DHT22;10347;51.828;6.466;2022-08-19T01:49:34;21.80;99.90
20376;DHT22;10347;51.828;6.466;2022-08-19T01:52:03;21.80;99.90
20376;DHT22;10347;51.828;6.466;2022-08-19T01:54:29;21.80;99.90
20376;DHT22;10347;51.828;6.466;2022-08-19T01:57:02;21.80;99.90
20376;DHT22;10347;51.828;6.466;2022-08-19T01:59:29;21.80;99.90
20376;DHT22;10347;51.828;6.466;2022-08-19T02:01:55;21.80;99.90
20376;DHT22;10347;51.828;6.466;2022-08-19T02:04:21;21.80;99.90
20376;DHT22;10347;51.828;6.466;2022-08-19T02:06:46;21.70;99.90
20376;DHT22;10347;51.828;6.466;2022-08-19T02:09:13;21.70;99.90
20376;DHT22;10347;51.828;6.466;2022-08-19T02:11:39;21.70;99.90
20376;DHT22;10347;51.828;6.466;2022-08-19T02:14:07;21.70;99.90
20376;DHT22;10347;51.828;6.466;2022-08-19T02:16:33;21.70;99.90
20376;DHT22;10347;51.828;6.466;2022-08-19T02:18:59;21.60;99.90
20376;DHT22;10347;51.828;6.466;2022-08-19T02:21:26;21.60;99.90
20376;DHT22;10347;51.828;6.466;2022-08-19T02:23:52;21.60;99.90
20376;DHT22;10347;51.828;6.466;2022-08-19T02:26:19;21.60;99.90
20376;DHT22;10347;51.828;6.466;2022-08-19T02:28:44;21.60;99.90
20376;DHT22;10347;51.828;6.466;2022-08-19T02:31:16;21.60;99.90
20376;DHT22;10347;51.828;6.466;2022-08-19T02:33:42;21.60;99.90
20376;DHT22;10347;51.828;6.466;2022-08-19T02:36:08;21.50;99.90
20376;DHT22;10347;51.828;6.466;2022-08-19T02:38:34;21.50;99.90
20376;DHT22;10347;51.828;6.466;2022-08-19T02:41:06;21.50;99.90
20376;DHT22;10347;51.828;6.466;2022-08-19T02:43:33;21.50;99.90
20376;DHT22;10347;51.828;6.466;2022-08-19T02:46:18;21.40;99.90
20376;DHT22;10347;51.828;6.466;2022-08-19T02:48:47;21.30;99.90
20376;DHT22;10347;51.828;6.466;2022-08-19T02:51:18;21.20;99.90
20376;DHT22;10347;51.828;6.466;2022-08-19T02:53:44;21.20;99.90
20376;DHT22;10347;51.828;6.466;2022-08-19T02:56:10;21.20;99.90
20376;DHT22;10347;51.828;6.466;2022-08-19T02:58:36;21.20;99.90
20376;DHT22;10347;51.828;6.466;2022-08-19T03:01:01;21.20;99.90
20376;DHT22;10347;51.828;6.466;2022-08-19T03:03:27;21.10;99.90
20376;DHT22;10347;51.828;6.466;2022-08-19T03:06:03;21.10;99.90
20376;DHT22;10347;51.828;6.466;2022-08-19T03:08:29;21.10;99.90
20376;DHT22;10347;51.828;6.466;2022-08-19T03:10:55;21.10;99.90
20376;DHT22;10347;51.828;6.466;2022-08-19T03:13:21;21.10;99.90
20376;DHT22;10347;51.828;6.466;2022-08-19T03:15:47;21.10;99.90
20376;DHT22;10347;51.828;6.466;2022-08-19T03:18:14;21.10;99.90
20376;DHT22;10347;51.828;6.466;2022-08-19T03:20:44;21.10;99.90
20376;DHT22;10347;51.828;6.466;2022-08-19T03:23:11;21.00;99.90
20376;DHT22;10347;51.828;6.466;2022-08-19T03:25:42;20.90;99.90
20376;DHT22;10347;51.828;6.466;2022-08-19T03:28:13;20.80;99.90
20376;DHT22;10347;51.828;6.466;2022-08-19T03:30:40;20.80;99.90
20376;DHT22;10347;51.828;6.466;2022-08-19T03:33:07;20.80;99.90
20376;DHT22;10347;51.828;6.466;2022-08-19T03:35:32;20.90;99.90
20376;DHT22;10347;51.828;6.466;2022-08-19T03:37:59;20.90;99.90
20376;DHT22;10347;51.828;6.466;2022-08-19T03:40:25;20.90;99.90
20376;DHT22;10347;51.828;6.466;2022-08-19T03:42:51;20.90;99.90
20376;DHT22;10347;51.828;6.466;2022-08-19T03:45:17;20.90;99.90
20376;DHT22;10347;51.828;6.466;2022-08-19T03:47:43;20.80;99.90
20376;DHT22;10347;51.828;6.466;2022-08-19T03:50:08;20.80;99.90
20376;DHT22;10347;51.828;6.466;2022-08-19T03:52:34;20.90;99.90
20376;DHT22;10347;51.828;6.466;2022-08-19T03:55:02;20.80;99.90
20376;DHT22;10347;51.828;6.466;2022-08-19T03:57:28;20.80;99.90
20376;DHT22;10347;51.828;6.466;2022-08-19T03:59:53;20.80;99.90
20376;DHT22;10347;51.828;6.466;2022-08-19T04:02:19;20.80;99.90
20376;DHT22;10347;51.828;6.466;2022-08-19T04:04:45;20.80;99.90
20376;DHT22;10347;51.828;6.466;2022-08-19T04:07:12;20.70;99.90
20376;DHT22;10347;51.828;6.466;2022-08-19T04:09:40;20.60;99.90
20376;DHT22;10347;51.828;6.466;2022-08-19T04:12:06;20.50;99.90
20376;DHT22;10347;51.828;6.466;2022-08-19T04:14:32;20.50;99.90
20376;DHT22;10347;51.828;6.466;2022-08-19T04:17:00;20.50;99.90
20376;DHT22;10347;51.828;6.466;2022-08-19T04:19:26;20.50;99.90
20376;DHT22;10347;51.828;6.466;2022-08-19T04:21:54;20.50;99.90
20376;DHT22;10347;51.828;6.466;2022-08-19T04:24:21;20.50;99.90
20376;DHT22;10347;51.828;6.466;2022-08-19T04:26:47;20.50;99.90
20376;DHT22;10347;51.828;6.466;2022-08-19T04:29:16;20.30;99.90
20376;DHT22;10347;51.828;6.466;2022-08-19T04:31:44;20.30;99.90
20376;DHT22;10347;51.828;6.466;2022-08-19T04:34:12;20.10;99.90
20376;DHT22;10347;51.828;6.466;2022-08-19T04:36:41;20.10;99.90
20376;DHT22;10347;51.828;6.466;2022-08-19T04:39:10;20.00;99.90
20376;DHT22;10347;51.828;6.466;2022-08-19T04:41:37;20.00;99.90
20376;DHT22;10347;51.828;6.466;2022-08-19T04:44:21;20.00;99.90
20376;DHT22;10347;51.828;6.466;2022-08-19T04:46:48;19.90;99.90
20376;DHT22;10347;51.828;6.466;2022-08-19T04:49:15;19.90;99.90
20376;DHT22;10347;51.828;6.466;2022-08-19T04:51:43;19.90;99.90
20376;DHT22;10347;51.828;6.466;2022-08-19T04:54:10;19.80;99.90
20376;DHT22;10347;51.828;6.466;2022-08-19T04:56:35;19.80;99.90
20376;DHT22;10347;51.828;6.466;2022-08-19T04:59:01;19.80;99.90
20376;DHT22;10347;51.828;6.466;2022-08-19T05:01:31;19.80;99.90
20376;DHT22;10347;51.828;6.466;2022-08-19T05:04:02;19.80;99.90
20376;DHT22;10347;51.828;6.466;2022-08-19T05:06:30;19.80;99.90
20376;DHT22;10347;51.828;6.466;2022-08-19T05:08:58;19.80;99.90
20376;DHT22;10347;51.828;6.466;2022-08-19T05:11:27;19.80;99.90
20376;DHT22;10347;51.828;6.466;2022-08-19T05:13:54;19.90;99.90
20376;DHT22;10347;51.828;6.466;2022-08-19T05:16:21;19.90;99.90
20376;DHT22;10347;51.828;6.466;2022-08-19T05:18:47;20.00;99.90
20376;DHT22;10347;51.828;6.466;2022-08-19T05:21:33;20.10;99.90
20376;DHT22;10347;51.828;6.466;2022-08-19T05:24:19;20.00;99.90
20376;DHT22;10347;51.828;6.466;2022-08-19T05:26:47;20.00;99.90
20376;DHT22;10347;51.828;6.466;2022-08-19T05:29:19;20.10;99.90
20376;DHT22;10347;51.828;6.466;2022-08-19T05:31:47;20.10;99.90
20376;DHT22;10347;51.828;6.466;2022-08-19T05:34:15;20.10;99.90
20376;DHT22;10347;51.828;6.466;2022-08-19T05:36:42;20.00;99.90
20376;DHT22;10347;51.828;6.466;2022-08-19T05:39:12;20.10;99.90
20376;DHT22;10347;51.828;6.466;2022-08-19T05:41:46;20.10;99.90
20376;DHT22;10347;51.828;6.466;2022-08-19T05:44:14;20.10;99.90
20376;DHT22;10347;51.828;6.466;2022-08-19T05:46:40;20.20;99.90
20376;DHT22;10347;51.828;6.466;2022-08-19T05:49:08;20.20;99.90
20376;DHT22;10347;51.828;6.466;2022-08-19T05:51:36;20.20;99.90
20376;DHT22;10347;51.828;6.466;2022-08-19T05:54:03;20.20;99.90
20376;DHT22;10347;51.828;6.466;2022-08-19T05:56:30;20.20;99.90
20376;DHT22;10347;51.828;6.466;2022-08-19T05:58:56;20.20;99.90
20376;DHT22;10347;51.828;6.466;2022-08-19T06:01:23;20.20;99.90
20376;DHT22;10347;51.828;6.466;2022-08-19T06:03:48;20.20;99.90
20376;DHT22;10347;51.828;6.466;2022-08-19T06:06:15;20.30;99.90
20376;DHT22;10347;51.828;6.466;2022-08-19T06:08:41;20.30;99.90
20376;DHT22;10347;51.828;6.466;2022-08-19T06:11:22;20.30;99.90
20376;DHT22;10347;51.828;6.466;2022-08-19T06:13:50;20.30;99.90
20376;DHT22;10347;51.828;6.466;2022-08-19T06:16:18;20.30;99.90
20376;DHT22;10347;51.828;6.466;2022-08-19T06:18:46;20.30;99.90
20376;DHT22;10347;51.828;6.466;2022-08-19T06:21:12;20.30;99.90
20376;DHT22;10347;51.828;6.466;2022-08-19T06:23:37;20.30;99.90
20376;DHT22;10347;51.828;6.466;2022-08-19T06:26:04;20.30;99.90
20376;DHT22;10347;51.828;6.466;2022-08-19T06:28:30;20.30;99.90
20376;DHT22;10347;51.828;6.466;2022-08-19T06:30:55;20.30;99.90
20376;DHT22;10347;51.828;6.466;2022-08-19T06:33:21;20.30;99.90
20376;DHT22;10347;51.828;6.466;2022-08-19T06:35:46;20.40;99.90
20376;DHT22;10347;51.828;6.466;2022-08-19T06:38:12;20.40;99.90
20376;DHT22;10347;51.828;6.466;2022-08-19T06:40:37;20.40;99.90
20376;DHT22;10347;51.828;6.466;2022-08-19T06:43:03;20.40;99.90
20376;DHT22;10347;51.828;6.466;2022-08-19T06:45:29;20.40;99.90
20376;DHT22;10347;51.828;6.466;2022-08-19T06:47:56;20.40;99.90
20376;DHT22;10347;51.828;6.466;2022-08-19T06:50:24;20.40;99.90
20376;DHT22;10347;51.828;6.466;2022-08-19T06:52:50;20.50;99.90
20376;DHT22;10347;51.828;6.466;2022-08-19T06:55:16;20.50;99.90
20376;DHT22;10347;51.828;6.466;2022-08-19T06:57:42;20.50;99.90
20376;DHT22;10347;51.828;6.466;2022-08-19T07:00:09;20.50;99.90
20376;DHT22;10347;51.828;6.466;2022-08-19T07:02:42;20.50;99.90
20376;DHT22;10347;51.828;6.466;2022-08-19T07:05:08;20.60;99.90
20376;DHT22;10347;51.828;6.466;2022-08-19T07:07:33;20.60;99.90
20376;DHT22;10347;51.828;6.466;2022-08-19T07:10:00;20.60;99.90
20376;DHT22;10347;51.828;6.466;2022-08-19T07:12:27;20.70;99.90
20376;DHT22;10347;51.828;6.466;2022-08-19T07:14:54;20.70;99.90
20376;DHT22;10347;51.828;6.466;2022-08-19T07:17:19;20.80;99.90
20376;DHT22;10347;51.828;6.466;2022-08-19T07:19:45;20.80;99.90
20376;DHT22;10347;51.828;6.466;2022-08-19T07:22:11;20.90;99.90
20376;DHT22;10347;51.828;6.466;2022-08-19T07:24:37;20.90;99.90
20376;DHT22;10347;51.828;6.466;2022-08-19T07:27:04;20.90;99.90
20376;DHT22;10347;51.828;6.466;2022-08-19T07:29:32;21.00;99.90
20376;DHT22;10347;51.828;6.466;2022-08-19T07:31:59;21.00;99.90
20376;DHT22;10347;51.828;6.466;2022-08-19T07:34:27;21.00;99.90
20376;DHT22;10347;51.828;6.466;2022-08-19T07:36:54;21.10;99.90
20376;DHT22;10347;51.828;6.466;2022-08-19T07:39:27;21.10;99.90
20376;DHT22;10347;51.828;6.466;2022-08-19T07:41:55;21.20;99.90
20376;DHT22;10347;51.828;6.466;2022-08-19T07:44:21;21.20;99.90
20376;DHT22;10347;51.828;6.466;2022-08-19T07:46:51;21.30;99.90
20376;DHT22;10347;51.828;6.466;2022-08-19T07:49:17;21.30;99.90
20376;DHT22;10347;51.828;6.466;2022-08-19T07:52:07;21.30;99.90
20376;DHT22;10347;51.828;6.466;2022-08-19T07:54:34;21.30;99.90
20376;DHT22;10347;51.828;6.466;2022-08-19T07:57:01;21.30;99.90
20376;DHT22;10347;51.828;6.466;2022-08-19T07:59:28;21.40;99.90
20376;DHT22;10347;51.828;6.466;2022-08-19T08:01:54;21.50;99.90
20376;DHT22;10347;51.828;6.466;2022-08-19T08:04:19;21.50;99.90
20376;DHT22;10347;51.828;6.466;2022-08-19T08:07:05;21.60;99.90
20376;DHT22;10347;51.828;6.466;2022-08-19T08:09:49;21.70;99.90
20376;DHT22;10347;51.828;6.466;2022-08-19T08:12:21;21.70;99.90
20376;DHT22;10347;51.828;6.466;2022-08-19T08:14:52;21.80;99.90
20376;DHT22;10347;51.828;6.466;2022-08-19T08:17:22;21.90;99.90
20376;DHT22;10347;51.828;6.466;2022-08-19T08:19:48;21.90;99.90
20376;DHT22;10347;51.828;6.466;2022-08-19T08:22:17;22.00;99.90
20376;DHT22;10347;51.828;6.466;2022-08-19T08:25:09;22.00;99.90
20376;DHT22;10347;51.828;6.466;2022-08-19T08:27:38;22.10;99.90
20376;DHT22;10347;51.828;6.466;2022-08-19T08:30:07;22.10;99.90
20376;DHT22;10347;51.828;6.466;2022-08-19T08:32:35;22.20;99.90
20376;DHT22;10347;51.828;6.466;2022-08-19T08:35:03;22.20;99.90
20376;DHT22;10347;51.828;6.466;2022-08-19T08:37:29;22.20;99.90
20376;DHT22;10347;51.828;6.466;2022-08-19T08:39:55;22.30;99.90
20376;DHT22;10347;51.828;6.466;2022-08-19T08:42:29;22.30;99.90
20376;DHT22;10347;51.828;6.466;2022-08-19T08:45:03;22.40;99.90
20376;DHT22;10347;51.828;6.466;2022-08-19T08:47:35;22.40;99.90
20376;DHT22;10347;51.828;6.466;2022-08-19T08:50:05;22.50;99.90
20376;DHT22;10347;51.828;6.466;2022-08-19T08:52:36;22.50;99.90
20376;DHT22;10347;51.828;6.466;2022-08-19T08:55:12;22.60;99.90
20376;DHT22;10347;51.828;6.466;2022-08-19T09:00:25;22.80;99.90
20376;DHT22;10347;51.828;6.466;2022-08-19T09:02:54;22.90;99.90
20376;DHT22;10347;51.828;6.466;2022-08-19T09:05:21;22.90;99.90
20376;DHT22;10347;51.828;6.466;2022-08-19T09:08:00;23.00;99.90
20376;DHT22;10347;51.828;6.466;2022-08-19T09:13:14;23.20;99.90
20376;DHT22;10347;51.828;6.466;2022-08-19T09:15:52;23.30;99.90
20376;DHT22;10347;51.828;6.466;2022-08-19T09:18:19;23.40;99.90
20376;DHT22;10347;51.828;6.466;2022-08-19T09:20:45;23.40;99.90
20376;DHT22;10347;51.828;6.466;2022-08-19T09:23:13;23.50;99.90
20376;DHT22;10347;51.828;6.466;2022-08-19T09:25:38;23.60;99.90
20376;DHT22;10347;51.828;6.466;2022-08-19T09:28:06;23.70;99.90
20376;DHT22;10347;51.828;6.466;2022-08-19T09:30:36;23.70;99.90
20376;DHT22;10347;51.828;6.466;2022-08-19T09:33:04;23.80;99.90
20376;DHT22;10347;51.828;6.466;2022-08-19T09:35:30;23.90;99.90
20376;DHT22;10347;51.828;6.466;2022-08-19T09:37:57;24.00;99.90
20376;DHT22;10347;51.828;6.466;2022-08-19T09:40:24;24.10;99.90
20376;DHT22;10347;51.828;6.466;2022-08-19T09:42:51;24.20;99.90
20376;DHT22;10347;51.828;6.466;2022-08-19T09:45:18;24.20;99.90
20376;DHT22;10347;51.828;6.466;2022-08-19T09:47:46;24.30;99.90
20376;DHT22;10347;51.828;6.466;2022-08-19T09:50:12;24.30;99.90
20376;DHT22;10347;51.828;6.466;2022-08-19T09:52:38;24.40;99.90
20376;DHT22;10347;51.828;6.466;2022-08-19T09:55:06;24.40;99.90
20376;DHT22;10347;51.828;6.466;2022-08-19T09:57:32;24.50;99.90
20376;DHT22;10347;51.828;6.466;2022-08-19T09:59:58;24.60;99.90
20376;DHT22;10347;51.828;6.466;2022-08-19T10:02:23;24.70;99.90
20376;DHT22;10347;51.828;6.466;2022-08-19T10:04:50;24.70;99.90
20376;DHT22;10347;51.828;6.466;2022-08-19T10:07:34;24.80;99.90
20376;DHT22;10347;51.828;6.466;2022-08-19T10:10:00;24.90;99.90
20376;DHT22;10347;51.828;6.466;2022-08-19T10:12:26;24.90;99.90
20376;DHT22;10347;51.828;6.466;2022-08-19T10:14:52;25.00;99.90
20376;DHT22;10347;51.828;6.466;2022-08-19T10:17:19;25.10;99.90
20376;DHT22;10347;51.828;6.466;2022-08-19T10:19:45;25.10;99.90
20376;DHT22;10347;51.828;6.466;2022-08-19T10:22:11;25.20;99.90
20376;DHT22;10347;51.828;6.466;2022-08-19T10:24:40;25.30;99.90
20376;DHT22;10347;51.828;6.466;2022-08-19T10:27:06;25.30;99.90
20376;DHT22;10347;51.828;6.466;2022-08-19T10:29:32;25.40;99.90
20376;DHT22;10347;51.828;6.466;2022-08-19T10:32:04;25.50;99.90
20376;DHT22;10347;51.828;6.466;2022-08-19T10:34:35;25.50;99.90
20376;DHT22;10347;51.828;6.466;2022-08-19T10:37:03;25.50;99.90
20376;DHT22;10347;51.828;6.466;2022-08-19T10:39:32;25.60;99.90
20376;DHT22;10347;51.828;6.466;2022-08-19T10:41:58;25.60;99.90
20376;DHT22;10347;51.828;6.466;2022-08-19T10:44:23;25.70;99.90
20376;DHT22;10347;51.828;6.466;2022-08-19T10:46:50;25.70;99.90
20376;DHT22;10347;51.828;6.466;2022-08-19T10:49:16;25.80;99.90
20376;DHT22;10347;51.828;6.466;2022-08-19T10:51:44;25.90;99.90
20376;DHT22;10347;51.828;6.466;2022-08-19T10:54:28;25.90;99.90
20376;DHT22;10347;51.828;6.466;2022-08-19T10:57:15;26.00;99.90
20376;DHT22;10347;51.828;6.466;2022-08-19T10:59:40;26.10;99.90
20376;DHT22;10347;51.828;6.466;2022-08-19T11:02:08;26.20;99.90
20376;DHT22;10347;51.828;6.466;2022-08-19T11:04:39;26.30;99.90
20376;DHT22;10347;51.828;6.466;2022-08-19T11:07:06;26.40;99.90
20376;DHT22;10347;51.828;6.466;2022-08-19T11:09:38;26.40;99.90
20376;DHT22;10347;51.828;6.466;2022-08-19T11:12:05;26.50;99.90
20376;DHT22;10347;51.828;6.466;2022-08-19T11:14:31;26.50;99.90
20376;DHT22;10347;51.828;6.466;2022-08-19T11:16:59;26.60;99.90
20376;DHT22;10347;51.828;6.466;2022-08-19T11:19:24;26.60;99.90
20376;DHT22;10347;51.828;6.466;2022-08-19T11:21:51;26.60;99.90
20376;DHT22;10347;51.828;6.466;2022-08-19T11:24:22;26.70;99.90
20376;DHT22;10347;51.828;6.466;2022-08-19T11:26:51;26.80;99.90
20376;DHT22;10347;51.828;6.466;2022-08-19T11:29:19;26.90;99.90
20376;DHT22;10347;51.828;6.466;2022-08-19T11:31:47;26.90;99.90
20376;DHT22;10347;51.828;6.466;2022-08-19T11:34:17;26.90;99.90
20376;DHT22;10347;51.828;6.466;2022-08-19T11:36:45;26.90;99.90
20376;DHT22;10347;51.828;6.466;2022-08-19T11:39:13;26.90;99.90
20376;DHT22;10347;51.828;6.466;2022-08-19T11:41:39;26.90;99.90
20376;DHT22;10347;51.828;6.466;2022-08-19T11:44:05;26.90;99.90
20376;DHT22;10347;51.828;6.466;2022-08-19T11:46:31;27.00;99.90
20376;DHT22;10347;51.828;6.466;2022-08-19T11:48:59;27.00;99.90
20376;DHT22;10347;51.828;6.466;2022-08-19T11:51:26;27.10;99.90
20376;DHT22;10347;51.828;6.466;2022-08-19T11:53:53;27.20;99.90
20376;DHT22;10347;51.828;6.466;2022-08-19T11:56:20;27.30;99.90
20376;DHT22;10347;51.828;6.466;2022-08-19T11:58:46;27.30;99.90
20376;DHT22;10347;51.828;6.466;2022-08-19T12:01:14;27.40;99.90
20376;DHT22;10347;51.828;6.466;2022-08-19T12:03:42;27.50;99.90
20376;DHT22;10347;51.828;6.466;2022-08-19T12:06:10;27.50;99.90
20376;DHT22;10347;51.828;6.466;2022-08-19T12:08:37;27.40;99.90
20376;DHT22;10347;51.828;6.466;2022-08-19T12:11:04;27.40;99.90
20376;DHT22;10347;51.828;6.466;2022-08-19T12:13:34;27.50;99.90
20376;DHT22;10347;51.828;6.466;2022-08-19T12:15:59;27.50;99.90
20376;DHT22;10347;51.828;6.466;2022-08-19T12:18:26;27.50;99.90
20376;DHT22;10347;51.828;6.466;2022-08-19T12:20:53;27.50;99.90
20376;DHT22;10347;51.828;6.466;2022-08-19T12:23:21;27.60;99.90
20376;DHT22;10347;51.828;6.466;2022-08-19T12:25:48;27.60;99.90
20376;DHT22;10347;51.828;6.466;2022-08-19T12:28:18;27.60;99.90
20376;DHT22;10347;51.828;6.466;2022-08-19T12:30:44;27.70;99.90
20376;DHT22;10347;51.828;6.466;2022-08-19T12:33:10;27.70;99.90
20376;DHT22;10347;51.828;6.466;2022-08-19T12:35:40;27.70;99.90
20376;DHT22;10347;51.828;6.466;2022-08-19T12:38:07;27.70;99.90
20376;DHT22;10347;51.828;6.466;2022-08-19T12:40:32;27.70;99.90
20376;DHT22;10347;51.828;6.466;2022-08-19T12:42:58;27.70;99.90
20376;DHT22;10347;51.828;6.466;2022-08-19T12:45:24;27.70;99.90
20376;DHT22;10347;51.828;6.466;2022-08-19T12:47:50;27.70;99.90
20376;DHT22;10347;51.828;6.466;2022-08-19T12:50:17;27.70;99.90
20376;DHT22;10347;51.828;6.466;2022-08-19T12:52:42;27.70;99.90
20376;DHT22;10347;51.828;6.466;2022-08-19T12:55:09;27.70;99.90
20376;DHT22;10347;51.828;6.466;2022-08-19T12:57:36;27.80;99.90
20376;DHT22;10347;51.828;6.466;2022-08-19T13:02:34;27.70;99.90
20376;DHT22;10347;51.828;6.466;2022-08-19T13:05:00;27.80;99.90
20376;DHT22;10347;51.828;6.466;2022-08-19T13:07:25;27.80;99.90
20376;DHT22;10347;51.828;6.466;2022-08-19T13:09:52;27.90;99.90
20376;DHT22;10347;51.828;6.466;2022-08-19T13:12:17;27.90;99.90
20376;DHT22;10347;51.828;6.466;2022-08-19T13:14:43;27.90;99.90
20376;DHT22;10347;51.828;6.466;2022-08-19T13:17:11;28.00;99.90
20376;DHT22;10347;51.828;6.466;2022-08-19T13:19:38;28.00;99.90
20376;DHT22;10347;51.828;6.466;2022-08-19T13:22:05;28.10;99.90
20376;DHT22;10347;51.828;6.466;2022-08-19T13:24:30;28.10;99.90
20376;DHT22;10347;51.828;6.466;2022-08-19T13:26:56;28.10;99.90
20376;DHT22;10347;51.828;6.466;2022-08-19T13:29:21;28.10;99.90
20376;DHT22;10347;51.828;6.466;2022-08-19T13:32:06;28.20;99.90
20376;DHT22;10347;51.828;6.466;2022-08-19T13:34:50;28.20;99.90
20376;DHT22;10347;51.828;6.466;2022-08-19T13:37:15;28.20;99.90
20376;DHT22;10347;51.828;6.466;2022-08-19T13:40:01;28.20;99.90
20376;DHT22;10347;51.828;6.466;2022-08-19T13:42:27;28.20;99.90
20376;DHT22;10347;51.828;6.466;2022-08-19T13:44:53;28.20;99.90
20376;DHT22;10347;51.828;6.466;2022-08-19T13:47:19;28.30;99.90
20376;DHT22;10347;51.828;6.466;2022-08-19T13:49:45;28.30;99.70
20376;DHT22;10347;51.828;6.466;2022-08-19T13:52:10;28.30;99.90
20376;DHT22;10347;51.828;6.466;2022-08-19T13:54:36;28.30;99.90
20376;DHT22;10347;51.828;6.466;2022-08-19T13:57:01;28.30;99.90
20376;DHT22;10347;51.828;6.466;2022-08-19T13:59:27;28.30;99.90
20376;DHT22;10347;51.828;6.466;2022-08-19T14:01:58;28.30;99.90
20376;DHT22;10347;51.828;6.466;2022-08-19T14:04:23;28.30;99.90
20376;DHT22;10347;51.828;6.466;2022-08-19T14:06:49;28.40;99.90
20376;DHT22;10347;51.828;6.466;2022-08-19T14:09:14;28.40;99.90
20376;DHT22;10347;51.828;6.466;2022-08-19T14:11:40;28.50;99.90
20376;DHT22;10347;51.828;6.466;2022-08-19T14:14:05;28.60;99.90
20376;DHT22;10347;51.828;6.466;2022-08-19T14:16:31;28.60;99.90
20376;DHT22;10347;51.828;6.466;2022-08-19T14:18:57;28.70;99.90
20376;DHT22;10347;51.828;6.466;2022-08-19T14:21:23;28.70;99.90
20376;DHT22;10347;51.828;6.466;2022-08-19T14:23:50;28.70;99.90
20376;DHT22;10347;51.828;6.466;2022-08-19T14:26:17;28.70;99.90
20376;DHT22;10347;51.828;6.466;2022-08-19T14:28:43;28.70;99.90
20376;DHT22;10347;51.828;6.466;2022-08-19T14:31:14;28.70;99.90
20376;DHT22;10347;51.828;6.466;2022-08-19T14:33:43;28.70;99.90
20376;DHT22;10347;51.828;6.466;2022-08-19T14:36:09;28.70;99.90
20376;DHT22;10347;51.828;6.466;2022-08-19T14:38:35;28.80;99.90
20376;DHT22;10347;51.828;6.466;2022-08-19T14:43:33;28.80;99.90
20376;DHT22;10347;51.828;6.466;2022-08-19T14:45:59;28.80;99.90
20376;DHT22;10347;51.828;6.466;2022-08-19T14:48:25;28.80;99.90
20376;DHT22;10347;51.828;6.466;2022-08-19T14:50:51;28.80;99.90
20376;DHT22;10347;51.828;6.466;2022-08-19T14:53:17;28.80;99.90
20376;DHT22;10347;51.828;6.466;2022-08-19T14:55:44;28.80;99.90
20376;DHT22;10347;51.828;6.466;2022-08-19T14:58:10;28.80;99.90
20376;DHT22;10347;51.828;6.466;2022-08-19T15:00:36;28.80;99.90
20376;DHT22;10347;51.828;6.466;2022-08-19T15:03:01;28.80;99.90
20376;DHT22;10347;51.828;6.466;2022-08-19T15:05:27;28.80;99.90
20376;DHT22;10347;51.828;6.466;2022-08-19T15:07:52;28.70;99.90
20376;DHT22;10347;51.828;6.466;2022-08-19T15:10:19;28.70;99.90
20376;DHT22;10347;51.828;6.466;2022-08-19T15:12:50;28.70;99.90
20376;DHT22;10347;51.828;6.466;2022-08-19T15:15:16;28.60;99.90
20376;DHT22;10347;51.828;6.466;2022-08-19T15:17:43;28.60;99.90
20376;DHT22;10347;51.828;6.466;2022-08-19T15:20:11;28.60;99.90
20376;DHT22;10347;51.828;6.466;2022-08-19T15:22:38;28.70;99.90
20376;DHT22;10347;51.828;6.466;2022-08-19T15:25:05;28.70;99.90
20376;DHT22;10347;51.828;6.466;2022-08-19T15:27:31;28.70;99.90
20376;DHT22;10347;51.828;6.466;2022-08-19T15:29:57;28.70;99.90
20376;DHT22;10347;51.828;6.466;2022-08-19T15:32:23;28.80;99.90
20376;DHT22;10347;51.828;6.466;2022-08-19T15:34:51;28.80;99.90
20376;DHT22;10347;51.828;6.466;2022-08-19T15:37:17;28.80;99.90
20376;DHT22;10347;51.828;6.466;2022-08-19T15:39:42;28.80;99.90
20376;DHT22;10347;51.828;6.466;2022-08-19T15:42:08;28.70;99.90
20376;DHT22;10347;51.828;6.466;2022-08-19T15:44:33;28.70;99.90
20376;DHT22;10347;51.828;6.466;2022-08-19T15:46:59;28.70;99.90